createdAt,value
2023-01-11T12:08:51.606Z,101513.73
2023-01-11T12:11:41.419Z,101511.46
2023-01-11T12:14:12.490Z,101515.78
2023-01-11T12:16:42.368Z,101522.09
2023-01-11T12:19:31.322Z,101520.37
2023-01-11T12:22:23.075Z,101511.27
2023-01-11T12:25:16.934Z,101504.37
2023-01-11T12:28:18.655Z,101506.35
2023-01-11T12:31:05.705Z,101507.90
2023-01-11T12:34:31.607Z,101512.69
2023-01-11T12:37:21.272Z,101510.52
2023-01-11T12:40:13.965Z,101512.73
2023-01-11T12:43:05.527Z,101512.98
2023-01-11T12:46:11.517Z,101509.61
2023-01-11T12:48:46.387Z,101509.98
2023-01-11T12:51:51.618Z,101507.61
2023-01-11T12:54:26.169Z,101506.60
2023-01-11T12:57:22.304Z,101509.61
2023-01-11T13:00:39.310Z,101513.98
2023-01-11T13:03:35.095Z,101517.74
2023-01-11T13:06:18.827Z,101505.00
2023-01-11T13:08:59.192Z,101509.26
2023-01-11T13:11:44.385Z,101516.19
2023-01-11T13:14:16.804Z,101510.08
2023-01-11T13:17:10.507Z,101506.24
2023-01-11T13:19:51.783Z,101506.23
2023-01-11T13:22:20.469Z,101507.18
2023-01-11T13:24:49.137Z,101508.08
2023-01-11T13:27:22.898Z,101506.05
2023-01-11T13:29:57.082Z,101507.34
2023-01-11T13:32:31.010Z,101503.11
2023-01-11T13:35:17.613Z,101503.48
2023-01-11T13:38:14.350Z,101507.45
2023-01-11T13:40:53.573Z,101512.80
2023-01-11T13:43:40.003Z,101518.54
2023-01-11T13:46:32.799Z,101529.28
2023-01-11T13:49:18.891Z,101543.08
2023-01-11T13:52:05.249Z,101548.48
2023-01-11T13:54:41.316Z,101546.69
2023-01-11T13:57:14.414Z,101537.17
2023-01-11T13:59:46.618Z,101535.13
2023-01-11T14:02:41.660Z,101534.29
2023-01-11T14:05:18.810Z,101530.28
2023-01-11T14:08:38.190Z,101525.52
2023-01-11T14:11:26.747Z,101526.19
2023-01-11T14:14:18.515Z,101530.30
2023-01-11T14:16:47.834Z,101537.81
2023-01-11T14:19:49.950Z,101540.45
2023-01-11T14:22:43.741Z,101544.77
2023-01-11T14:25:17.868Z,101543.98
2023-01-11T14:28:24.008Z,101538.53
2023-01-11T14:31:08.954Z,101539.76
2023-01-11T14:33:54.364Z,101535.15
2023-01-11T14:36:47.008Z,101539.35
2023-01-11T14:39:54.555Z,101541.86
2023-01-11T14:42:48.039Z,101544.15
2023-01-11T14:45:25.789Z,101549.92
2023-01-11T14:48:18.439Z,101553.70
2023-01-11T14:51:06.466Z,101544.09
2023-01-11T14:53:38.667Z,101548.00
2023-01-11T14:56:53.548Z,101552.36
2023-01-11T14:59:27.866Z,101546.84
2023-01-11T15:02:05.649Z,101548.84
2023-01-11T15:05:00.633Z,101548.92
2023-01-11T15:07:34.272Z,101548.64
